Latest Weather Observations for Gayndah

IDQ60801

Issued at 10:35 pm EST Monday 20 October 2014 (issued every 30 minutes, with the page automatically refreshed every 10 minutes)

About weather observations | Map of weather stations | Latest weather observations for QLD | Other Formats
Station Details ID: 039066 Name: GAYNDAH AIRPORT Lat: -25.62 Lon: 151.62 Height: 110.9 m
Data from the previous 72 hours. | See also: Recent months at Gayndah
Date/Time
EST
Temp
°C
App
Temp
°C
Dew
Point
Rel
Hum
%
Delta-T
°C
Wind Press
QNH
hPa
Press
MSL
hPa
Rain
since 9 am
mm
Dir
 
Spd
km/h
Gust
km/h
Spd
kts
Gust
kts
20/10:30pm 18.7 16.8 11.8 64 3.8 ENE 13 19 7 10 1025.7 1025.2 0.0
20/10:00pm 19.5 16.7 11.5 60 4.4 ENE 17 24 9 13 1025.4 1024.9 0.0
20/09:30pm 20.1 16.6 10.2 53 5.4 ENE 19 22 10 12 1025.1 1024.6 0.0
20/09:00pm 20.9 19.3 11.5 55 5.2 NE 11 17 6 9 1024.7 1024.2 0.0
20/08:30pm 21.5 19.6 11.8 54 5.4 NE 13 19 7 10 1024.0 1023.5 0.0
20/08:00pm 22.6 19.4 12.0 51 6.0 NE 20 28 11 15 1023.1 1022.7 0.0
20/07:30pm 23.4 19.9 12.1 49 6.4 NE 22 32 12 17 1022.5 1022.1 0.0
20/07:00pm 24.6 21.3 11.5 44 7.4 NE 20 28 11 15 1021.9 1021.5 0.0
20/06:30pm 26.6 22.0 9.5 34 9.5 ENE 24 32 13 17 1021.1 1020.7 0.0
20/06:00pm 27.6 23.0 5.8 25 11.4 E 19 26 10 14 1020.3 1019.9 0.0
20/05:30pm 28.8 24.4 5.0 22 12.4 ENE 17 22 9 12 1019.9 1019.5 0.0
20/05:00pm 29.9 25.2 5.2 21 12.9 E 19 30 10 16 1019.5 1019.1 0.0
20/04:30pm 30.4 25.1 4.9 20 13.3 ENE 22 26 12 14 1019.2 1018.8 0.0
20/04:00pm 30.4 25.5 4.2 19 13.5 E 19 22 10 12 1019.2 1018.8 0.0
20/03:30pm 30.5 25.8 5.0 20 13.4 ENE 19 26 10 14 1019.2 1018.8 0.0
20/03:00pm 30.8 26.4 4.5 19 13.7 E 17 24 9 13 1019.3 1018.9 0.0
20/02:30pm 30.4 26.8 4.9 20 13.3 ESE 13 26 7 14 1019.6 1019.2 0.0
20/02:00pm 30.6 25.1 5.8 21 13.1 E 24 28 13 15 1020.0 1019.6 0.0
20/01:30pm 30.0 26.5 7.2 24 12.4 SE 15 22 8 12 1020.6 1020.2 0.0
20/01:00pm 28.6 26.7 6.7 25 11.7 NNW 6 11 3 6 1021.1 1020.7 0.0
20/12:30pm 28.4 24.0 6.5 25 11.6 ENE 19 30 10 16 1021.7 1021.3 0.0
20/12:00pm 27.6 25.2 6.9 27 11.0 ENE 9 22 5 12 1022.3 1021.9 0.0
20/11:30am 26.8 23.8 7.8 30 10.2 ENE 13 22 7 12 1022.9 1022.5 0.0
20/11:00am 25.8 24.1 7.4 31 9.7 NNE 6 13 3 7 1023.7 1023.2 0.0
20/10:30am 25.3 23.2 8.3 34 9.2 E 9 17 5 9 1024.2 1023.7 0.0
20/10:00am 23.9 22.7 9.5 40 7.8 N 6 11 3 6 1024.9 1024.4 0.0
20/09:30am 23.2 22.1 9.9 43 7.3 NNE 6 11 3 6 1025.2 1024.7 0.0
20/09:00am 21.9 20.9 10.4 48 6.3 NE 6 19 3 10 1025.6 1025.1 0.0
20/08:30am 21.6 19.8 10.7 50 6.0 E 11 19 6 10 1025.7 1025.2 0.0
20/08:00am 20.6 18.7 10.4 52 5.5 ENE 11 20 6 11 1025.6 1025.1 0.0
20/07:30am 19.5 19.1 11.0 58 4.7 ENE 4 9 2 5 1025.6 1025.1 0.0
20/07:00am 17.6 18.0 11.2 66 3.5 CALM 0 0 0 0 1025.7 1025.2 0.0
20/06:30am 15.4 15.7 11.0 75 2.3 SSW 0 0 0 0 1025.5 1025.0 0.0
20/06:00am 13.5 13.7 10.7 83 1.5 CALM 0 0 0 0 1025.2 1024.7 0.0
20/05:30am 12.0 12.0 9.7 86 1.2 CALM 0 0 0 0 1024.8 1024.3 0.0
20/05:00am 12.1 12.2 10.0 87 1.1 CALM 0 0 0 0 1024.5 1024.0 0.0
20/04:30am 12.6 12.8 10.5 87 1.1 CALM 0 0 0 0 1024.3 1023.8 0.0
20/04:00am 12.8 13.0 10.5 86 1.2 CALM 0 0 0 0 1024.2 1023.7 0.0
20/03:30am 13.0 13.1 10.2 83 1.5 CALM 0 2 0 1 1023.9 1023.4 0.0
20/03:00am 13.2 12.5 10.2 82 1.6 S 4 6 2 3 1024.1 1023.6 0.0
20/02:30am 13.8 14.1 11.0 83 1.5 CALM 0 0 0 0 1024.1 1023.6 0.0
20/02:00am 13.4 12.7 10.0 80 1.8 SSE 4 6 2 3 1024.4 1023.9 0.0
20/01:30am 14.2 14.3 10.2 77 2.1 CALM 0 0 0 0 1024.4 1023.9 0.0
20/01:00am 15.3 15.8 11.7 79 1.9 CALM 0 0 0 0 1024.6 1024.1 0.0
20/12:30am 15.3 15.7 11.3 77 2.2 CALM 0 0 0 0 1025.0 1024.5 0.0
20/12:00am 15.1 14.0 10.1 72 2.6 E 6 7 3 4 1025.1 1024.6 0.0
 
Date/Time
EST
Temp
°C
App
Temp
°C
Dew
Point
Rel
Hum
%
Delta-T
°C
Wind Press
QNH
hPa
Press
MSL
hPa
Rain
since 9 am
mm
Dir
 
Spd
km/h
Gust
km/h
Spd
kts
Gust
kts
19/11:30pm 16.3 16.3 11.0 71 2.9 NNE 2 4 1 2 1025.6 1025.1 0.0
19/11:00pm 16.9 17.3 11.2 69 3.1 CALM 0 4 0 2 1025.7 1025.2 0.0
19/10:30pm 17.7 16.8 11.5 67 3.4 NE 7 9 4 5 1025.7 1025.2 0.0
19/10:00pm 18.5 16.8 11.3 63 3.9 NE 11 15 6 8 1025.6 1025.1 0.0
19/09:30pm 19.1 17.0 11.2 60 4.3 NE 13 17 7 9 1025.6 1025.1 0.0
19/09:00pm 19.7 17.2 10.9 57 4.8 NE 15 20 8 11 1025.3 1024.8 0.0
19/08:30pm 20.5 17.9 10.6 53 5.4 ENE 15 22 8 12 1024.9 1024.4 0.0
19/08:00pm 21.3 17.2 10.2 49 6.0 NE 22 32 12 17 1024.5 1024.0 0.0
19/07:30pm 22.0 18.4 10.5 48 6.3 ENE 20 28 11 15 1024.0 1023.5 0.0
19/07:00pm 22.8 19.2 10.6 46 6.7 NE 20 30 11 16 1023.3 1022.9 0.0
19/06:30pm 24.1 20.4 10.0 41 7.8 ENE 20 26 11 14 1022.6 1022.2 0.0
19/06:00pm 25.1 20.5 9.8 38 8.4 ENE 24 33 13 18 1022.0 1021.6 0.0
19/05:30pm 26.6 22.7 9.5 34 9.5 ENE 20 26 11 14 1021.4 1021.0 0.0
19/05:00pm 27.9 25.9 8.7 30 10.5 E 9 17 5 9 1021.0 1020.6 0.0
19/04:30pm 28.2 24.6 8.5 29 10.8 E 17 24 9 13 1020.8 1020.4 0.0
19/04:00pm 28.4 25.6 8.7 29 10.8 E 13 26 7 14 1020.7 1020.3 0.0
19/03:30pm 29.0 25.1 8.7 28 11.2 ENE 19 24 10 13 1020.7 1020.3 0.0
19/03:00pm 28.7 25.0 7.9 27 11.3 ENE 17 24 9 13 1020.8 1020.4 0.0
19/02:30pm 29.5 24.2 8.5 27 11.6 E 26 35 14 19 1021.0 1020.6 0.0
19/02:00pm 27.6 23.8 7.5 28 10.8 ESE 17 30 9 16 1021.6 1021.2 0.0
19/01:30pm 28.1 24.5 8.4 29 10.8 SE 17 26 9 14 1022.0 1021.6 0.0
19/01:00pm 28.3 25.0 8.1 28 11.0 ESE 15 22 8 12 1022.7 1022.3 0.0
19/12:30pm 28.4 25.1 9.6 31 10.5 E 17 28 9 15 1023.3 1022.9 0.0
19/12:00pm 26.9 24.3 9.3 33 9.7 E 13 22 7 12 1023.8 1023.3 0.0
19/11:30am 27.0 24.1 9.8 34 9.6 E 15 26 8 14 1024.3 1023.8 0.0
19/11:00am 26.4 22.9 10.1 36 9.1 E 19 30 10 16 1024.8 1024.3 0.0
19/10:30am 25.2 21.6 9.9 38 8.5 ESE 19 32 10 17 1025.3 1024.8 0.0
19/10:00am 25.3 21.9 11.1 41 8.0 E 20 26 11 14 1025.9 1025.5 0.0
19/09:30am 24.8 20.7 11.4 43 7.6 E 24 32 13 17 1026.3 1025.9 0.0
19/09:00am 23.6 19.5 11.6 47 6.8 ENE 24 32 13 17 1026.6 1026.2 0.0
19/08:30am 23.4 19.7 12.7 51 6.2 E 24 30 13 16 1026.6 1026.2 0.0
19/08:00am 21.9 19.7 13.3 58 4.9 ESE 17 22 9 12 1026.8 1026.4 0.0
19/07:30am 20.7 19.6 13.2 62 4.3 ESE 11 20 6 11 1026.7 1026.3 0.0
19/07:00am 19.9 20.5 13.1 65 3.9 SE 2 6 1 3 1026.5 1026.1 0.0
19/06:30am 18.0 18.9 12.9 72 2.9 CALM 0 0 0 0 1026.2 1025.8 0.0
19/06:00am 15.4 16.3 12.9 85 1.4 CALM 0 0 0 0 1025.8 1025.3 0.0
19/05:30am 14.1 14.5 12.5 90 0.9 SSE 2 4 1 2 1025.6 1025.1 0.0
19/05:00am 14.5 15.1 11.8 84 1.5 CALM 0 4 0 2 1025.2 1024.7 0.0
19/04:30am 16.3 16.0 12.7 79 2.0 NE 6 6 3 3 1024.8 1024.3 0.0
19/04:00am 15.9 16.0 12.6 81 1.8 ENE 4 6 2 3 1024.6 1024.1 0.0
19/03:30am 15.7 16.3 13.0 84 1.5 ENE 2 4 1 2 1024.6 1024.1 0.0
19/03:00am 15.9 16.2 12.3 79 2.0 NNE 2 4 1 2 1024.4 1023.9 0.0
19/02:30am 17.0 17.6 13.1 78 2.2 E 2 4 1 2 1024.4 1023.9 0.0
19/02:00am 17.2 16.8 12.9 76 2.4 E 7 11 4 6 1024.4 1023.9 0.0
19/01:30am 17.2 17.0 12.9 76 2.4 ENE 6 9 3 5 1024.5 1024.0 0.0
19/01:00am 17.9 17.6 13.4 75 2.5 E 7 11 4 6 1024.7 1024.2 0.0
19/12:30am 18.4 18.2 13.5 73 2.8 E 7 13 4 7 1025.1 1024.6 0.0
19/12:00am 18.5 17.9 13.6 73 2.8 E 9 13 5 7 1025.2 1024.7 0.0
 
Date/Time
EST
Temp
°C
App
Temp
°C
Dew
Point
Rel
Hum
%
Delta-T
°C
Wind Press
QNH
hPa
Press
MSL
hPa
Rain
since 9 am
mm
Dir
 
Spd
km/h
Gust
km/h
Spd
kts
Gust
kts
18/11:30pm 17.8 17.9 12.7 72 2.9 E 4 7 2 4 1025.5 1025.0 0.0
18/11:00pm 18.4 17.9 12.8 70 3.1 E 7 11 4 6 1025.4 1024.9 0.0
18/10:30pm 18.4 17.9 12.6 69 3.3 E 7 9 4 5 1025.5 1025.0 0.0
18/10:00pm 19.0 18.4 12.3 65 3.7 E 7 11 4 6 1025.5 1025.0 0.0
18/09:30pm 19.2 18.3 11.5 61 4.3 ENE 7 11 4 6 1025.5 1025.0 0.0
18/09:00pm 20.1 18.8 11.3 57 4.8 E 9 13 5 7 1025.3 1024.8 0.0
18/08:30pm 20.8 17.6 11.2 54 5.3 E 19 28 10 15 1025.0 1024.5 0.0
18/08:00pm 21.4 18.1 10.9 51 5.8 E 19 32 10 17 1024.7 1024.2 0.0
18/07:30pm 21.9 18.3 9.8 46 6.6 E 19 28 10 15 1024.2 1023.7 0.0
18/07:00pm 22.5 18.3 9.6 44 7.0 ENE 22 30 12 16 1023.5 1023.1 0.0
18/06:30pm 23.2 19.2 10.6 45 7.0 E 22 30 12 16 1022.9 1022.5 0.0
18/06:00pm 24.1 20.4 10.0 41 7.7 E 20 32 11 17 1022.2 1021.8 0.0
18/05:30pm 24.9 21.2 10.0 39 8.3 E 20 33 11 18 1021.6 1021.2 0.0
18/05:00pm 26.1 21.6 9.9 36 9.0 E 24 35 13 19 1020.9 1020.5 0.0
18/04:30pm 27.5 23.7 7.4 28 10.8 ESE 17 24 9 13 1020.4 1020.0 0.0
18/04:00pm 27.3 23.7 6.7 27 10.9 ESE 15 19 8 10 1020.3 1019.9 0.0
18/03:30pm 27.8 25.9 6.6 26 11.2 SE 6 19 3 10 1020.3 1019.9 0.0
18/03:00pm 29.1 27.0 8.2 27 11.4 ENE 9 20 5 11 1020.4 1020.0 0.0
18/02:30pm 28.0 24.1 7.3 27 11.1 SE 17 20 9 11 1020.8 1020.4 0.0
18/02:00pm 28.7 25.7 7.9 27 11.3 E 13 26 7 14 1021.0 1020.6 0.0
18/01:30pm 27.5 25.3 6.3 26 11.2 SSW 7 15 4 8 1021.4 1021.0 0.0
18/01:00pm 28.5 25.0 8.7 29 10.9 ESE 17 24 9 13 1021.9 1021.5 0.0
18/12:30pm 27.0 24.5 8.4 31 10.1 ESE 11 19 6 10 1022.2 1021.8 0.0
18/12:00pm 28.1 25.7 9.9 32 10.2 E 13 24 7 13 1022.7 1022.3 0.0
18/11:30am 27.1 24.5 10.8 36 9.3 E 15 24 8 13 1023.4 1023.0 0.0
18/11:00am 24.8 21.7 10.3 40 8.0 ESE 17 28 9 15 1023.9 1023.4 0.0
18/10:30am 25.6 22.8 11.4 41 8.1 E 17 30 9 16 1024.3 1023.8 0.0
18/10:00am 24.3 21.7 11.9 45 7.0 ESE 17 28 9 15 1024.8 1024.3 0.0
18/09:30am 24.7 21.9 12.6 47 7.0 E 19 28 10 15 1024.9 1024.4 0.0
18/09:00am 22.3 19.9 12.8 55 5.4 SE 17 24 9 13 1025.1 1024.6 0.0
18/08:30am 22.4 19.6 13.2 56 5.3 E 20 30 11 16 1025.1 1024.6 0.0
18/08:00am 22.5 20.1 13.8 58 5.1 ESE 19 28 10 15 1024.9 1024.4 0.0
18/07:30am 21.2 18.7 13.4 61 4.5 ESE 19 28 10 15 1024.6 1024.1 0.0
18/07:00am 19.1 17.8 13.7 71 3.1 ESE 13 20 7 11 1024.3 1023.8 0.0
18/06:30am 18.4 17.2 14.1 76 2.5 ESE 13 22 7 12 1023.8 1023.3 0.0
18/06:00am 17.2 17.4 14.7 85 1.4 ESE 7 11 4 6 1023.3 1022.9 0.0
18/05:30am 15.7 16.2 13.9 89 1.0 SSE 4 6 2 3 1022.9 1022.5 0.0
18/05:00am 15.3 16.4 13.5 89 1.0 CALM 0 0 0 0 1022.5 1022.1 0.0
18/04:30am 15.4 15.3 13.4 88 1.1 SE 6 7 3 4 1022.0 1021.6 0.0
18/04:00am 15.6 16.6 13.1 85 1.4 CALM 0 0 0 0 1021.5 1021.1 0.0
18/03:30am 15.7 16.8 13.4 86 1.3 CALM 0 0 0 0 1021.2 1020.8 0.0
18/03:00am 15.8 16.9 13.5 86 1.3 CALM 0 0 0 0 1021.1 1020.7 0.0
18/02:30am 16.3 17.2 13.0 81 1.8 CALM 0 0 0 0 1021.1 1020.7 0.0
18/02:00am 16.9 17.8 12.8 77 2.3 CALM 0 0 0 0 1021.2 1020.8 0.0
18/01:30am 17.8 18.1 13.3 75 2.5 SE 4 4 2 2 1021.2 1020.8 0.0
18/01:00am 18.4 18.5 13.9 75 2.6 E 6 9 3 5 1021.3 1020.9 0.0
18/12:30am 19.1 18.9 13.7 71 3.1 E 7 9 4 5 1021.4 1021.0 0.0
18/12:00am 19.4 19.3 14.0 71 3.1 E 7 11 4 6 1021.5 1021.1 0.0
 
Date/Time
EST
Temp
°C
App
Temp
°C
Dew
Point
Rel
Hum
%
Delta-T
°C
Wind Press
QNH
hPa
Press
MSL
hPa
Rain
since 9 am
mm
Dir
 
Spd
km/h
Gust
km/h
Spd
kts
Gust
kts
17/11:30pm 19.9 20.1 14.3 70 3.3 ENE 6 7 3 4 1021.4 1021.0 0.0
17/11:00pm 19.7 19.5 14.7 73 2.9 ENE 9 13 5 7 1021.2 1020.8 0.0

Other Formats:

Comma delimited format used in spreadsheet applications
http://www.bom.gov.au/fwo/IDQ60801/IDQ60801.95543.axf

JavaScript Object Notation format (JSON) in row-major order
http://www.bom.gov.au/fwo/IDQ60801/IDQ60801.95543.json